sensor_id;sensor_type;location;lat;lon;timestamp;pressure;altitude;pressure_sealevel;temperature;humidity
37132;BME280;23035;50.032;21.978;2023-09-30T00:02:49;66846.91;;;15.87;100.00
37132;BME280;23035;50.032;21.978;2023-09-30T00:07:53;66841.06;;;15.84;100.00
37132;BME280;23035;50.032;21.978;2023-09-30T00:12:57;66828.66;;;15.72;100.00
37132;BME280;23035;50.032;21.978;2023-09-30T00:18:03;66888.44;;;16.29;100.00
37132;BME280;23035;50.032;21.978;2023-09-30T00:23:07;66931.56;;;16.70;100.00
37132;BME280;23035;50.032;21.978;2023-09-30T00:28:11;66865.84;;;16.08;100.00
37132;BME280;23035;50.032;21.978;2023-09-30T00:33:21;66803.41;;;15.51;100.00
37132;BME280;23035;50.032;21.978;2023-09-30T00:38:26;66872.69;;;16.09;100.00
37132;BME280;23035;50.032;21.978;2023-09-30T00:43:29;66897.06;;;16.37;100.00
37132;BME280;23035;50.032;21.978;2023-09-30T00:48:36;66852.91;;;15.95;100.00
37132;BME280;23035;50.032;21.978;2023-09-30T00:53:41;66870.75;;;16.15;100.00
37132;BME280;23035;50.032;21.978;2023-09-30T00:58:46;66808.66;;;15.51;100.00
37132;BME280;23035;50.032;21.978;2023-09-30T01:03:54;66846.38;;;15.87;100.00
37132;BME280;23035;50.032;21.978;2023-09-30T01:08:59;66830.84;;;15.74;100.00
37132;BME280;23035;50.032;21.978;2023-09-30T01:14:03;66790.97;;;15.37;100.00
37132;BME280;23035;50.032;21.978;2023-09-30T01:19:08;66783.91;;;15.28;100.00
37132;BME280;23035;50.032;21.978;2023-09-30T01:24:14;66752.75;;;15.01;100.00
37132;BME280;23035;50.032;21.978;2023-09-30T01:29:19;66796.44;;;15.44;100.00
37132;BME280;23035;50.032;21.978;2023-09-30T01:34:24;66763.03;;;15.13;100.00
37132;BME280;23035;50.032;21.978;2023-09-30T01:39:29;66749.00;;;14.97;100.00
37132;BME280;23035;50.032;21.978;2023-09-30T01:44:34;66753.34;;;15.04;100.00
37132;BME280;23035;50.032;21.978;2023-09-30T01:49:38;66761.91;;;15.09;100.00
37132;BME280;23035;50.032;21.978;2023-09-30T01:54:43;66765.22;;;15.15;100.00
37132;BME280;23035;50.032;21.978;2023-09-30T01:59:47;66774.91;;;15.24;100.00
37132;BME280;23035;50.032;21.978;2023-09-30T02:04:50;66717.16;;;14.64;100.00
37132;BME280;23035;50.032;21.978;2023-09-30T02:09:57;66822.22;;;15.66;100.00
37132;BME280;23035;50.032;21.978;2023-09-30T02:15:02;66789.34;;;15.35;100.00
37132;BME280;23035;50.032;21.978;2023-09-30T02:20:07;66777.97;;;15.22;100.00
37132;BME280;23035;50.032;21.978;2023-09-30T02:25:17;66749.53;;;14.98;100.00
37132;BME280;23035;50.032;21.978;2023-09-30T02:30:20;66781.34;;;15.30;100.00
37132;BME280;23035;50.032;21.978;2023-09-30T02:35:24;66778.06;;;15.25;100.00
37132;BME280;23035;50.032;21.978;2023-09-30T02:40:30;66786.13;;;15.32;100.00
37132;BME280;23035;50.032;21.978;2023-09-30T02:45:34;66750.44;;;14.93;100.00
37132;BME280;23035;50.032;21.978;2023-09-30T02:50:38;66740.84;;;14.87;100.00
37132;BME280;23035;50.032;21.978;2023-09-30T02:55:44;66757.59;;;15.05;100.00
37132;BME280;23035;50.032;21.978;2023-09-30T03:00:48;66747.22;;;14.90;100.00
37132;BME280;23035;50.032;21.978;2023-09-30T03:05:52;66743.59;;;14.92;100.00
37132;BME280;23035;50.032;21.978;2023-09-30T03:10:58;66734.97;;;14.84;100.00
37132;BME280;23035;50.032;21.978;2023-09-30T03:16:02;66779.72;;;15.29;100.00
37132;BME280;23035;50.032;21.978;2023-09-30T03:21:12;66727.91;;;14.75;100.00
37132;BME280;23035;50.032;21.978;2023-09-30T03:26:18;66796.81;;;15.40;100.00
37132;BME280;23035;50.032;21.978;2023-09-30T03:31:22;66793.03;;;15.36;100.00
37132;BME280;23035;50.032;21.978;2023-09-30T03:36:27;66715.53;;;14.63;100.00
37132;BME280;23035;50.032;21.978;2023-09-30T03:41:33;66750.66;;;15.01;100.00
37132;BME280;23035;50.032;21.978;2023-09-30T03:46:39;66788.19;;;15.32;100.00
37132;BME280;23035;50.032;21.978;2023-09-30T03:51:43;66762.50;;;15.12;100.00
37132;BME280;23035;50.032;21.978;2023-09-30T03:56:48;66741.44;;;14.90;100.00
37132;BME280;23035;50.032;21.978;2023-09-30T04:01:52;66676.94;;;14.31;100.00
37132;BME280;23035;50.032;21.978;2023-09-30T04:06:57;66655.91;;;14.09;100.00
37132;BME280;23035;50.032;21.978;2023-09-30T04:12:02;66666.19;;;14.21;100.00
37132;BME280;23035;50.032;21.978;2023-09-30T04:17:06;66713.94;;;14.61;100.00
37132;BME280;23035;50.032;21.978;2023-09-30T04:22:12;66735.53;;;14.84;100.00
37132;BME280;23035;50.032;21.978;2023-09-30T04:27:21;66696.88;;;14.50;100.00
37132;BME280;23035;50.032;21.978;2023-09-30T04:32:24;66666.59;;;14.17;100.00
37132;BME280;23035;50.032;21.978;2023-09-30T04:37:30;66696.34;;;14.50;100.00
37132;BME280;23035;50.032;21.978;2023-09-30T04:42:36;66688.16;;;14.40;100.00
37132;BME280;23035;50.032;21.978;2023-09-30T04:47:39;66655.50;;;14.14;100.00
37132;BME280;23035;50.032;21.978;2023-09-30T04:52:43;66708.09;;;14.58;100.00
37132;BME280;23035;50.032;21.978;2023-09-30T04:57:50;66657.44;;;14.08;100.00
37132;BME280;23035;50.032;21.978;2023-09-30T05:02:55;66690.25;;;14.39;100.00
37132;BME280;23035;50.032;21.978;2023-09-30T05:07:59;66808.81;;;15.56;100.00
37132;BME280;23035;50.032;21.978;2023-09-30T05:13:06;66776.97;;;15.24;100.00
37132;BME280;23035;50.032;21.978;2023-09-30T05:18:10;66891.59;;;16.29;100.00
37132;BME280;23035;50.032;21.978;2023-09-30T05:23:14;66904.63;;;16.44;100.00
37132;BME280;23035;50.032;21.978;2023-09-30T05:28:21;66866.84;;;16.06;100.00
37132;BME280;23035;50.032;21.978;2023-09-30T05:33:24;66930.41;;;16.66;100.00
37132;BME280;23035;50.032;21.978;2023-09-30T05:38:30;66943.97;;;16.81;100.00
37132;BME280;23035;50.032;21.978;2023-09-30T05:43:36;66970.97;;;17.09;100.00
37132;BME280;23035;50.032;21.978;2023-09-30T05:48:39;66944.97;;;16.80;100.00
37132;BME280;23035;50.032;21.978;2023-09-30T05:53:43;67058.34;;;17.92;100.00
37132;BME280;23035;50.032;21.978;2023-09-30T05:58:50;67055.03;;;17.86;100.00
37132;BME280;23035;50.032;21.978;2023-09-30T06:04:02;67140.38;;;18.69;99.96
37132;BME280;23035;50.032;21.978;2023-09-30T06:09:06;67113.28;;;18.41;100.00
37132;BME280;23035;50.032;21.978;2023-09-30T06:14:12;67141.22;;;18.62;100.00
37132;BME280;23035;50.032;21.978;2023-09-30T06:19:17;67169.44;;;18.94;99.76
37132;BME280;23035;50.032;21.978;2023-09-30T06:24:21;67210.94;;;19.31;99.09
37132;BME280;23035;50.032;21.978;2023-09-30T06:29:26;67304.44;;;20.21;89.50
37132;BME280;23035;50.032;21.978;2023-09-30T06:34:31;67229.94;;;19.54;93.02
37132;BME280;23035;50.032;21.978;2023-09-30T06:39:37;67240.78;;;19.64;95.29
37132;BME280;23035;50.032;21.978;2023-09-30T06:44:42;67255.81;;;19.75;94.30
37132;BME280;23035;50.032;21.978;2023-09-30T06:49:46;67235.38;;;19.59;97.31
37132;BME280;23035;50.032;21.978;2023-09-30T06:54:50;67249.84;;;19.67;96.65
37132;BME280;23035;50.032;21.978;2023-09-30T06:59:56;67301.19;;;20.18;93.90
37132;BME280;23035;50.032;21.978;2023-09-30T07:04:59;67334.22;;;20.52;91.03
37132;BME280;23035;50.032;21.978;2023-09-30T07:10:04;67344.91;;;20.57;87.76
37132;BME280;23035;50.032;21.978;2023-09-30T07:15:10;67279.59;;;19.98;95.67
37132;BME280;23035;50.032;21.978;2023-09-30T07:20:14;67230.44;;;19.52;100.00
37132;BME280;23035;50.032;21.978;2023-09-30T07:25:18;67273.09;;;19.92;97.01
37132;BME280;23035;50.032;21.978;2023-09-30T07:30:23;67276.81;;;19.93;96.65
37132;BME280;23035;50.032;21.978;2023-09-30T07:35:27;67312.59;;;20.31;93.21
37132;BME280;23035;50.032;21.978;2023-09-30T07:40:31;67239.09;;;19.60;100.00
37132;BME280;23035;50.032;21.978;2023-09-30T07:45:36;67298.56;;;20.18;94.22
37132;BME280;23035;50.032;21.978;2023-09-30T07:50:40;67272.03;;;19.91;97.13
37132;BME280;23035;50.032;21.978;2023-09-30T07:55:44;67296.88;;;20.14;93.26
37132;BME280;23035;50.032;21.978;2023-09-30T08:00:49;67279.72;;;20.03;93.83
37132;BME280;23035;50.032;21.978;2023-09-30T08:05:53;67299.59;;;20.17;95.13
37132;BME280;23035;50.032;21.978;2023-09-30T08:10:57;67360.72;;;20.77;91.30
37132;BME280;23035;50.032;21.978;2023-09-30T08:16:03;67394.69;;;21.06;87.76
37132;BME280;23035;50.032;21.978;2023-09-30T08:21:08;67346.09;;;20.63;91.76
37132;BME280;23035;50.032;21.978;2023-09-30T08:26:12;67394.81;;;21.11;88.38
37132;BME280;23035;50.032;21.978;2023-09-30T08:31:18;67394.63;;;21.04;89.27
37132;BME280;23035;50.032;21.978;2023-09-30T08:36:22;67443.91;;;21.53;89.28
37132;BME280;23035;50.032;21.978;2023-09-30T08:41:30;67404.97;;;21.16;87.57
37132;BME280;23035;50.032;21.978;2023-09-30T08:46:36;67380.03;;;20.90;91.83
37132;BME280;23035;50.032;21.978;2023-09-30T08:51:40;67364.50;;;20.80;88.25
37132;BME280;23035;50.032;21.978;2023-09-30T08:56:47;67366.19;;;20.84;92.97
37132;BME280;23035;50.032;21.978;2023-09-30T09:01:53;67356.91;;;20.73;94.70
37132;BME280;23035;50.032;21.978;2023-09-30T09:06:57;67434.19;;;21.43;91.29
37132;BME280;23035;50.032;21.978;2023-09-30T09:12:01;67415.84;;;21.29;95.11
37132;BME280;23035;50.032;21.978;2023-09-30T09:17:07;67350.94;;;20.65;93.78
37132;BME280;23035;50.032;21.978;2023-09-30T09:22:11;67313.03;;;20.27;97.06
37132;BME280;23035;50.032;21.978;2023-09-30T09:27:18;67372.06;;;20.87;100.00
37132;BME280;23035;50.032;21.978;2023-09-30T09:32:26;67410.91;;;21.22;94.42
37132;BME280;23035;50.032;21.978;2023-09-30T09:37:30;67407.06;;;21.15;100.00
37132;BME280;23035;50.032;21.978;2023-09-30T09:42:38;67318.47;;;20.34;100.00
37132;BME280;23035;50.032;21.978;2023-09-30T09:47:44;67241.44;;;19.69;100.00
37132;BME280;23035;50.032;21.978;2023-09-30T09:52:48;67191.06;;;19.17;100.00
37132;BME280;23035;50.032;21.978;2023-09-30T09:57:53;67229.88;;;19.51;100.00
37132;BME280;23035;50.032;21.978;2023-09-30T10:02:59;67294.16;;;20.12;100.00
37132;BME280;23035;50.032;21.978;2023-09-30T10:08:05;67252.72;;;19.77;100.00
37132;BME280;23035;50.032;21.978;2023-09-30T10:13:09;67201.94;;;19.30;100.00
37132;BME280;23035;50.032;21.978;2023-09-30T10:18:37;67232.03;;;19.53;100.00
37132;BME280;23035;50.032;21.978;2023-09-30T10:29:21;67147.25;;;18.71;100.00
37132;BME280;23035;50.032;21.978;2023-09-30T10:34:48;67184.00;;;19.08;100.00
37132;BME280;23035;50.032;21.978;2023-09-30T10:39:56;67202.44;;;19.28;100.00
37132;BME280;23035;50.032;21.978;2023-09-30T10:45:02;67208.34;;;19.33;100.00
37132;BME280;23035;50.032;21.978;2023-09-30T10:55:27;67103.03;;;18.31;100.00
37132;BME280;23035;50.032;21.978;2023-09-30T11:00:33;67039.94;;;17.72;100.00
37132;BME280;23035;50.032;21.978;2023-09-30T11:05:37;67042.16;;;17.76;100.00
37132;BME280;23035;50.032;21.978;2023-09-30T11:11:02;67014.50;;;17.45;100.00
37132;BME280;23035;50.032;21.978;2023-09-30T11:16:06;66969.38;;;17.08;100.00
37132;BME280;23035;50.032;21.978;2023-09-30T11:21:11;67020.50;;;17.54;100.00
37132;BME280;23035;50.032;21.978;2023-09-30T11:26:17;67067.44;;;17.98;100.00
37132;BME280;23035;50.032;21.978;2023-09-30T11:31:36;67007.63;;;17.44;100.00
37132;BME280;23035;50.032;21.978;2023-09-30T11:36:41;67107.41;;;18.38;100.00
37132;BME280;23035;50.032;21.978;2023-09-30T11:41:52;67139.28;;;18.68;100.00
37132;BME280;23035;50.032;21.978;2023-09-30T11:46:58;67115.03;;;18.48;100.00
37132;BME280;23035;50.032;21.978;2023-09-30T11:52:04;67139.66;;;18.63;100.00
37132;BME280;23035;50.032;21.978;2023-09-30T11:57:12;67090.72;;;18.22;100.00
37132;BME280;23035;50.032;21.978;2023-09-30T12:02:18;67164.03;;;18.89;100.00
37132;BME280;23035;50.032;21.978;2023-09-30T12:07:22;67032.97;;;17.68;100.00
37132;BME280;23035;50.032;21.978;2023-09-30T12:12:27;66998.47;;;17.35;100.00
37132;BME280;23035;50.032;21.978;2023-09-30T12:17:31;67038.34;;;17.70;100.00
37132;BME280;23035;50.032;21.978;2023-09-30T12:22:36;66988.16;;;17.23;100.00
37132;BME280;23035;50.032;21.978;2023-09-30T12:27:41;66976.31;;;17.12;100.00
37132;BME280;23035;50.032;21.978;2023-09-30T12:32:45;66933.75;;;16.72;100.00
37132;BME280;23035;50.032;21.978;2023-09-30T12:37:49;67011.94;;;17.48;100.00
37132;BME280;23035;50.032;21.978;2023-09-30T12:42:55;67015.78;;;17.54;100.00
37132;BME280;23035;50.032;21.978;2023-09-30T12:48:02;66926.84;;;16.70;100.00
37132;BME280;23035;50.032;21.978;2023-09-30T12:53:06;67058.19;;;17.87;100.00
37132;BME280;23035;50.032;21.978;2023-09-30T12:58:11;67086.91;;;18.19;100.00
37132;BME280;23035;50.032;21.978;2023-09-30T13:03:15;67018.97;;;17.55;100.00
37132;BME280;23035;50.032;21.978;2023-09-30T13:08:19;67012.97;;;17.46;100.00
37132;BME280;23035;50.032;21.978;2023-09-30T13:13:25;67015.72;;;17.52;100.00
37132;BME280;23035;50.032;21.978;2023-09-30T13:18:28;67015.09;;;17.48;100.00
37132;BME280;23035;50.032;21.978;2023-09-30T13:23:33;66997.25;;;17.29;100.00
37132;BME280;23035;50.032;21.978;2023-09-30T13:28:47;67002.66;;;17.34;100.00
37132;BME280;23035;50.032;21.978;2023-09-30T13:33:51;67037.78;;;17.70;100.00
37132;BME280;23035;50.032;21.978;2023-09-30T13:38:55;67001.09;;;17.35;100.00
37132;BME280;23035;50.032;21.978;2023-09-30T13:44:01;67032.97;;;17.68;100.00
37132;BME280;23035;50.032;21.978;2023-09-30T13:49:05;67029.75;;;17.65;100.00
37132;BME280;23035;50.032;21.978;2023-09-30T13:54:09;67026.97;;;17.60;100.00
37132;BME280;23035;50.032;21.978;2023-09-30T13:59:14;66995.69;;;17.30;100.00
37132;BME280;23035;50.032;21.978;2023-09-30T14:04:18;66967.75;;;17.06;100.00
37132;BME280;23035;50.032;21.978;2023-09-30T14:09:22;66951.13;;;16.93;100.00
37132;BME280;23035;50.032;21.978;2023-09-30T14:14:39;66891.75;;;16.34;100.00
37132;BME280;23035;50.032;21.978;2023-09-30T14:19:44;66892.38;;;16.38;100.00
37132;BME280;23035;50.032;21.978;2023-09-30T14:24:48;66883.06;;;16.24;100.00
37132;BME280;23035;50.032;21.978;2023-09-30T14:29:53;66875.00;;;16.16;100.00
37132;BME280;23035;50.032;21.978;2023-09-30T14:34:57;66887.91;;;16.28;100.00
37132;BME280;23035;50.032;21.978;2023-09-30T14:40:01;66920.22;;;16.59;100.00
37132;BME280;23035;50.032;21.978;2023-09-30T14:45:09;66952.03;;;16.89;100.00
37132;BME280;23035;50.032;21.978;2023-09-30T14:50:14;66912.22;;;16.54;100.00
37132;BME280;23035;50.032;21.978;2023-09-30T14:55:18;66887.44;;;16.30;100.00
37132;BME280;23035;50.032;21.978;2023-09-30T15:00:23;66893.84;;;16.34;100.00
37132;BME280;23035;50.032;21.978;2023-09-30T15:05:29;66876.13;;;16.20;100.00
37132;BME280;23035;50.032;21.978;2023-09-30T15:10:34;66888.50;;;16.31;100.00
37132;BME280;23035;50.032;21.978;2023-09-30T15:15:39;66894.38;;;16.34;100.00
37132;BME280;23035;50.032;21.978;2023-09-30T15:20:44;66994.63;;;17.29;100.00
37132;BME280;23035;50.032;21.978;2023-09-30T15:25:49;66891.13;;;16.31;100.00
37132;BME280;23035;50.032;21.978;2023-09-30T15:30:54;66902.66;;;16.50;100.00
37132;BME280;23035;50.032;21.978;2023-09-30T15:36:08;66940.88;;;16.83;100.00
37132;BME280;23035;50.032;21.978;2023-09-30T15:41:12;66875.75;;;16.24;100.00
37132;BME280;23035;50.032;21.978;2023-09-30T15:46:18;66844.34;;;15.90;100.00
37132;BME280;23035;50.032;21.978;2023-09-30T15:51:23;66841.66;;;15.87;100.00
37132;BME280;23035;50.032;21.978;2023-09-30T15:56:28;66841.75;;;15.90;100.00
37132;BME280;23035;50.032;21.978;2023-09-30T16:01:48;66835.59;;;15.76;100.00
37132;BME280;23035;50.032;21.978;2023-09-30T16:06:52;66811.50;;;15.59;100.00
37132;BME280;23035;50.032;21.978;2023-09-30T16:11:56;66799.66;;;15.47;100.00
37132;BME280;23035;50.032;21.978;2023-09-30T16:17:01;66819.13;;;15.68;100.00
37132;BME280;23035;50.032;21.978;2023-09-30T16:22:05;66817.91;;;15.62;100.00
37132;BME280;23035;50.032;21.978;2023-09-30T16:27:09;66834.53;;;15.75;100.00
37132;BME280;23035;50.032;21.978;2023-09-30T16:32:14;66860.38;;;16.00;100.00
37132;BME280;23035;50.032;21.978;2023-09-30T16:37:18;66829.66;;;15.71;100.00
37132;BME280;23035;50.032;21.978;2023-09-30T16:42:22;66821.69;;;15.66;100.00
37132;BME280;23035;50.032;21.978;2023-09-30T16:47:27;66824.84;;;15.66;100.00
37132;BME280;23035;50.032;21.978;2023-09-30T16:52:32;66798.03;;;15.46;100.00
37132;BME280;23035;50.032;21.978;2023-09-30T16:57:35;66784.50;;;15.31;100.00
37132;BME280;23035;50.032;21.978;2023-09-30T17:02:41;66823.34;;;15.70;100.00
37132;BME280;23035;50.032;21.978;2023-09-30T17:07:46;66836.75;;;15.80;100.00
37132;BME280;23035;50.032;21.978;2023-09-30T17:12:50;66803.88;;;15.49;100.00
37132;BME280;23035;50.032;21.978;2023-09-30T17:17:56;66883.69;;;16.27;100.00
37132;BME280;23035;50.032;21.978;2023-09-30T17:23:00;66904.00;;;16.41;100.00
37132;BME280;23035;50.032;21.978;2023-09-30T17:28:04;66902.59;;;16.47;100.00
37132;BME280;23035;50.032;21.978;2023-09-30T17:33:10;66856.19;;;16.01;100.00
37132;BME280;23035;50.032;21.978;2023-09-30T17:38:14;66912.78;;;16.54;100.00
37132;BME280;23035;50.032;21.978;2023-09-30T17:43:18;66881.53;;;16.25;100.00
37132;BME280;23035;50.032;21.978;2023-09-30T17:48:23;66874.84;;;16.11;100.00
37132;BME280;23035;50.032;21.978;2023-09-30T17:53:27;66906.22;;;16.46;100.00
37132;BME280;23035;50.032;21.978;2023-09-30T17:58:33;66880.44;;;16.24;100.00
37132;BME280;23035;50.032;21.978;2023-09-30T18:03:38;66851.91;;;15.97;100.00
37132;BME280;23035;50.032;21.978;2023-09-30T18:08:43;66852.84;;;15.93;100.00
37132;BME280;23035;50.032;21.978;2023-09-30T18:13:48;66841.13;;;15.87;100.00
37132;BME280;23035;50.032;21.978;2023-09-30T18:18:56;66794.78;;;15.43;100.00
37132;BME280;23035;50.032;21.978;2023-09-30T18:24:00;66742.59;;;14.93;100.00
37132;BME280;23035;50.032;21.978;2023-09-30T18:29:04;66757.66;;;15.08;100.00
37132;BME280;23035;50.032;21.978;2023-09-30T18:34:09;66723.78;;;14.76;100.00
37132;BME280;23035;50.032;21.978;2023-09-30T18:39:13;66813.13;;;15.60;100.00
37132;BME280;23035;50.032;21.978;2023-09-30T18:44:28;66782.34;;;15.29;100.00
37132;BME280;23035;50.032;21.978;2023-09-30T18:49:33;66828.22;;;15.74;100.00
37132;BME280;23035;50.032;21.978;2023-09-30T18:54:37;66788.72;;;15.32;100.00
37132;BME280;23035;50.032;21.978;2023-09-30T18:59:40;66721.06;;;14.73;100.00
37132;BME280;23035;50.032;21.978;2023-09-30T19:04:45;66709.94;;;14.68;100.00
37132;BME280;23035;50.032;21.978;2023-09-30T19:09:49;66733.91;;;14.83;100.00
37132;BME280;23035;50.032;21.978;2023-09-30T19:14:53;66746.38;;;14.97;100.00
37132;BME280;23035;50.032;21.978;2023-09-30T19:19:58;66794.66;;;15.38;100.00
37132;BME280;23035;50.032;21.978;2023-09-30T19:25:02;66781.88;;;15.31;100.00
37132;BME280;23035;50.032;21.978;2023-09-30T19:30:06;66651.69;;;14.07;100.00
37132;BME280;23035;50.032;21.978;2023-09-30T19:35:11;66633.84;;;13.88;100.00
37132;BME280;23035;50.032;21.978;2023-09-30T19:40:15;66666.59;;;14.17;100.00
37132;BME280;23035;50.032;21.978;2023-09-30T19:45:19;66723.84;;;14.78;100.00
37132;BME280;23035;50.032;21.978;2023-09-30T19:50:26;66733.38;;;14.82;100.00
37132;BME280;23035;50.032;21.978;2023-09-30T19:55:31;66756.59;;;15.07;100.00
37132;BME280;23035;50.032;21.978;2023-09-30T20:00:35;66715.69;;;14.68;100.00
37132;BME280;23035;50.032;21.978;2023-09-30T20:05:42;66717.78;;;14.68;100.00
37132;BME280;23035;50.032;21.978;2023-09-30T20:10:46;66678.00;;;14.32;100.00
37132;BME280;23035;50.032;21.978;2023-09-30T20:15:50;66667.25;;;14.22;100.00
37132;BME280;23035;50.032;21.978;2023-09-30T20:20:55;66681.88;;;14.39;100.00
37132;BME280;23035;50.032;21.978;2023-09-30T20:25:59;66678.09;;;14.35;100.00
37132;BME280;23035;50.032;21.978;2023-09-30T20:31:03;66642.28;;;13.91;100.00
37132;BME280;23035;50.032;21.978;2023-09-30T20:36:08;66626.94;;;13.84;100.00
37132;BME280;23035;50.032;21.978;2023-09-30T20:41:12;66669.94;;;14.25;100.00
37132;BME280;23035;50.032;21.978;2023-09-30T20:46:16;66542.44;;;13.02;100.00
